sensor_id;sensor_type;location;lat;lon;timestamp;pressure;altitude;pressure_sealevel;temperature;humidity
80509;BME280;69838;52.602;13.434;2023-07-13T00:00:06;100822.53;;;14.91;77.84
80509;BME280;69838;52.602;13.434;2023-07-13T00:00:54;100825.81;;;14.96;78.59
80509;BME280;69838;52.602;13.434;2023-07-13T00:01:41;100811.47;;;14.94;78.38
80509;BME280;69838;52.602;13.434;2023-07-13T00:02:26;100819.03;;;14.89;78.29
80509;BME280;69838;52.602;13.434;2023-07-13T00:03:14;100818.19;;;14.88;77.64
80509;BME280;69838;52.602;13.434;2023-07-13T00:04:01;100808.59;;;14.83;79.19
80509;BME280;69838;52.602;13.434;2023-07-13T00:04:46;100811.22;;;14.84;79.00
80509;BME280;69838;52.602;13.434;2023-07-13T00:05:31;100815.75;;;14.84;79.67
80509;BME280;69838;52.602;13.434;2023-07-13T00:06:17;100814.22;;;14.80;78.41
80509;BME280;69838;52.602;13.434;2023-07-13T00:07:02;100812.69;;;14.76;78.21
80509;BME280;69838;52.602;13.434;2023-07-13T00:07:48;100811.59;;;14.78;78.20
80509;BME280;69838;52.602;13.434;2023-07-13T00:08:34;100805.88;;;14.83;79.37
80509;BME280;69838;52.602;13.434;2023-07-13T00:09:21;100807.91;;;14.79;79.83
80509;BME280;69838;52.602;13.434;2023-07-13T00:10:08;100819.84;;;14.77;78.53
80509;BME280;69838;52.602;13.434;2023-07-13T00:10:53;100806.25;;;14.77;79.51
80509;BME280;69838;52.602;13.434;2023-07-13T00:11:41;100811.81;;;14.75;79.10
80509;BME280;69838;52.602;13.434;2023-07-13T00:12:37;100813.44;;;14.78;79.72
80509;BME280;69838;52.602;13.434;2023-07-13T00:13:23;100812.69;;;14.76;79.99
80509;BME280;69838;52.602;13.434;2023-07-13T00:14:09;100802.00;;;14.73;80.08
80509;BME280;69838;52.602;13.434;2023-07-13T00:14:59;100811.91;;;14.74;78.60
80509;BME280;69838;52.602;13.434;2023-07-13T00:15:45;100816.56;;;14.72;78.50
80509;BME280;69838;52.602;13.434;2023-07-13T00:16:30;100806.66;;;14.70;79.25
80509;BME280;69838;52.602;13.434;2023-07-13T00:17:16;100802.50;;;14.65;79.67
80509;BME280;69838;52.602;13.434;2023-07-13T00:18:02;100808.53;;;14.70;80.13
80509;BME280;69838;52.602;13.434;2023-07-13T00:18:47;100813.06;;;14.69;80.52
80509;BME280;69838;52.602;13.434;2023-07-13T00:19:32;100810.47;;;14.68;79.49
80509;BME280;69838;52.602;13.434;2023-07-13T00:20:19;100803.94;;;14.70;80.69
80509;BME280;69838;52.602;13.434;2023-07-13T00:21:07;100807.63;;;14.69;79.71
80509;BME280;69838;52.602;13.434;2023-07-13T00:21:52;100809.56;;;14.67;80.01
80509;BME280;69838;52.602;13.434;2023-07-13T00:22:40;100805.03;;;14.68;81.01
80509;BME280;69838;52.602;13.434;2023-07-13T00:23:26;100807.63;;;14.69;80.70
80509;BME280;69838;52.602;13.434;2023-07-13T00:24:14;100814.06;;;14.68;80.41
80509;BME280;69838;52.602;13.434;2023-07-13T00:24:59;100809.56;;;14.67;80.44
80509;BME280;69838;52.602;13.434;2023-07-13T00:25:44;100814.06;;;14.68;80.13
80509;BME280;69838;52.602;13.434;2023-07-13T00:26:30;100812.09;;;14.70;79.96
80509;BME280;69838;52.602;13.434;2023-07-13T00:27:18;100823.94;;;14.69;79.65
80509;BME280;69838;52.602;13.434;2023-07-13T00:28:03;100816.78;;;14.68;79.91
80509;BME280;69838;52.602;13.434;2023-07-13T00:28:49;100825.88;;;14.67;79.92
80509;BME280;69838;52.602;13.434;2023-07-13T00:29:34;100818.72;;;14.66;78.59
80509;BME280;69838;52.602;13.434;2023-07-13T00:30:19;100824.81;;;14.70;79.63
80509;BME280;69838;52.602;13.434;2023-07-13T00:31:04;100820.25;;;14.70;80.05
80509;BME280;69838;52.602;13.434;2023-07-13T00:31:50;100825.69;;;14.70;80.00
80509;BME280;69838;52.602;13.434;2023-07-13T00:32:36;100829.38;;;14.69;80.83
80509;BME280;69838;52.602;13.434;2023-07-13T00:33:21;100828.59;;;14.67;80.30
80509;BME280;69838;52.602;13.434;2023-07-13T00:34:07;100827.72;;;14.67;81.16
80509;BME280;69838;52.602;13.434;2023-07-13T00:34:53;100820.75;;;14.63;80.06
80509;BME280;69838;52.602;13.434;2023-07-13T00:35:38;100824.53;;;14.60;80.91
80509;BME280;69838;52.602;13.434;2023-07-13T00:36:24;100823.75;;;14.58;81.18
80509;BME280;69838;52.602;13.434;2023-07-13T00:37:10;100822.97;;;14.56;80.93
80509;BME280;69838;52.602;13.434;2023-07-13T00:37:56;100822.97;;;14.56;81.08
80509;BME280;69838;52.602;13.434;2023-07-13T00:38:41;100824.91;;;14.54;81.17
80509;BME280;69838;52.602;13.434;2023-07-13T00:39:27;100823.16;;;14.53;81.48
80509;BME280;69838;52.602;13.434;2023-07-13T00:40:13;100819.56;;;14.52;81.12
80509;BME280;69838;52.602;13.434;2023-07-13T00:40:59;100818.59;;;14.54;81.27
80509;BME280;69838;52.602;13.434;2023-07-13T00:41:44;100814.91;;;14.55;81.01
80509;BME280;69838;52.602;13.434;2023-07-13T00:42:29;100818.78;;;14.50;80.65
80509;BME280;69838;52.602;13.434;2023-07-13T00:43:20;100811.69;;;14.48;80.86
80509;BME280;69838;52.602;13.434;2023-07-13T00:44:13;100815.50;;;14.45;81.16
80509;BME280;69838;52.602;13.434;2023-07-13T00:46:15;100804.91;;;14.41;82.58
80509;BME280;69838;52.602;13.434;2023-07-13T00:47:01;100809.56;;;14.39;81.74
80509;BME280;69838;52.602;13.434;2023-07-13T00:47:46;100812.59;;;14.34;81.95
80509;BME280;69838;52.602;13.434;2023-07-13T00:48:34;100810.16;;;14.29;82.30
80509;BME280;69838;52.602;13.434;2023-07-13T00:49:23;100806.00;;;14.24;82.23
80509;BME280;69838;52.602;13.434;2023-07-13T00:50:12;100814.22;;;14.22;82.22
80509;BME280;69838;52.602;13.434;2023-07-13T00:51:00;100813.19;;;14.25;82.51
80509;BME280;69838;52.602;13.434;2023-07-13T00:51:50;100810.56;;;14.23;81.88
80509;BME280;69838;52.602;13.434;2023-07-13T00:52:38;100814.41;;;14.19;82.99
80509;BME280;69838;52.602;13.434;2023-07-13T00:53:27;100812.88;;;14.15;82.74
80509;BME280;69838;52.602;13.434;2023-07-13T00:54:18;100820.41;;;14.10;83.46
80509;BME280;69838;52.602;13.434;2023-07-13T00:55:04;100825.06;;;14.08;83.58
80509;BME280;69838;52.602;13.434;2023-07-13T00:55:50;100816.34;;;14.03;82.58
80509;BME280;69838;52.602;13.434;2023-07-13T00:56:36;100813.81;;;14.00;83.26
80509;BME280;69838;52.602;13.434;2023-07-13T00:57:22;100807.91;;;13.93;83.96
80509;BME280;69838;52.602;13.434;2023-07-13T00:58:08;100816.91;;;13.93;83.65
80509;BME280;69838;52.602;13.434;2023-07-13T00:58:55;100811.88;;;13.87;83.44
80509;BME280;69838;52.602;13.434;2023-07-13T00:59:43;100813.78;;;13.85;83.39
80509;BME280;69838;52.602;13.434;2023-07-13T01:00:30;100814.78;;;13.84;83.83
80509;BME280;69838;52.602;13.434;2023-07-13T01:01:15;100818.66;;;13.80;83.83
80509;BME280;69838;52.602;13.434;2023-07-13T01:02:01;100807.97;;;13.77;84.22
80509;BME280;69838;52.602;13.434;2023-07-13T01:02:47;100811.84;;;13.73;84.70
80509;BME280;69838;52.602;13.434;2023-07-13T01:03:34;100806.50;;;13.71;84.59
80509;BME280;69838;52.602;13.434;2023-07-13T01:04:19;100808.53;;;13.68;84.42
80509;BME280;69838;52.602;13.434;2023-07-13T01:05:15;100807.38;;;13.72;84.78
80509;BME280;69838;52.602;13.434;2023-07-13T01:06:00;100806.69;;;13.68;84.84
80509;BME280;69838;52.602;13.434;2023-07-13T01:06:46;100812.28;;;13.65;85.28
80509;BME280;69838;52.602;13.434;2023-07-13T01:07:32;100806.19;;;13.62;85.13
80509;BME280;69838;52.602;13.434;2023-07-13T01:08:17;100805.41;;;13.60;84.93
80509;BME280;69838;52.602;13.434;2023-07-13T01:09:03;100807.34;;;13.58;85.62
80509;BME280;69838;52.602;13.434;2023-07-13T01:09:49;100804.81;;;13.54;85.53
80509;BME280;69838;52.602;13.434;2023-07-13T01:10:34;100812.06;;;13.54;85.08
80509;BME280;69838;52.602;13.434;2023-07-13T01:11:23;100808.50;;;13.53;85.38
80509;BME280;69838;52.602;13.434;2023-07-13T01:12:09;100804.19;;;13.49;85.56
80509;BME280;69838;52.602;13.434;2023-07-13T01:12:54;100806.91;;;13.49;86.03
80509;BME280;69838;52.602;13.434;2023-07-13T01:13:39;100809.84;;;13.46;85.87
80509;BME280;69838;52.602;13.434;2023-07-13T01:14:24;100817.06;;;13.46;85.92
80509;BME280;69838;52.602;13.434;2023-07-13T01:15:42;100823.56;;;13.43;85.18
80509;BME280;69838;52.602;13.434;2023-07-13T01:16:30;100821.03;;;13.40;85.60
80509;BME280;69838;52.602;13.434;2023-07-13T01:17:16;100818.91;;;13.45;85.71
80509;BME280;69838;52.602;13.434;2023-07-13T01:18:02;100822.41;;;13.47;85.73
80509;BME280;69838;52.602;13.434;2023-07-13T01:18:47;100820.00;;;13.43;85.73
80509;BME280;69838;52.602;13.434;2023-07-13T01:19:38;100823.72;;;13.40;85.88
80509;BME280;69838;52.602;13.434;2023-07-13T01:20:24;100825.59;;;13.40;86.09
80509;BME280;69838;52.602;13.434;2023-07-13T01:21:10;100817.53;;;13.38;85.67
80509;BME280;69838;52.602;13.434;2023-07-13T01:21:55;100820.34;;;13.36;85.57
80509;BME280;69838;52.602;13.434;2023-07-13T01:22:40;100829.44;;;13.35;85.56
80509;BME280;69838;52.602;13.434;2023-07-13T01:23:26;100826.66;;;13.37;85.77
80509;BME280;69838;52.602;13.434;2023-07-13T01:24:12;100828.28;;;13.40;86.45
80509;BME280;69838;52.602;13.434;2023-07-13T01:24:57;100828.56;;;13.35;85.93
80509;BME280;69838;52.602;13.434;2023-07-13T01:25:42;100824.88;;;13.36;86.49
80509;BME280;69838;52.602;13.434;2023-07-13T01:26:27;100833.28;;;13.31;86.10
80509;BME280;69838;52.602;13.434;2023-07-13T01:27:16;100833.97;;;13.35;86.22
80509;BME280;69838;52.602;13.434;2023-07-13T01:28:03;100830.41;;;13.34;86.10
80509;BME280;69838;52.602;13.434;2023-07-13T01:28:48;100821.72;;;13.28;86.10
80509;BME280;69838;52.602;13.434;2023-07-13T01:29:36;100827.13;;;13.28;86.16
80509;BME280;69838;52.602;13.434;2023-07-13T01:30:27;100822.84;;;13.24;86.15
80509;BME280;69838;52.602;13.434;2023-07-13T01:31:13;100825.56;;;13.24;86.14
80509;BME280;69838;52.602;13.434;2023-07-13T01:31:58;100820.31;;;13.21;86.46
80509;BME280;69838;52.602;13.434;2023-07-13T01:32:45;100822.25;;;13.18;86.47
80509;BME280;69838;52.602;13.434;2023-07-13T01:33:30;100827.69;;;13.18;86.68
80509;BME280;69838;52.602;13.434;2023-07-13T01:34:15;100821.66;;;13.13;87.17
80509;BME280;69838;52.602;13.434;2023-07-13T01:35:01;100827.06;;;13.13;86.85
80509;BME280;69838;52.602;13.434;2023-07-13T01:35:46;100833.28;;;13.15;87.25
80509;BME280;69838;52.602;13.434;2023-07-13T01:36:32;100835.03;;;13.16;87.45
80509;BME280;69838;52.602;13.434;2023-07-13T01:37:18;100829.69;;;13.15;87.50
80509;BME280;69838;52.602;13.434;2023-07-13T01:38:04;100832.22;;;13.18;87.49
80509;BME280;69838;52.602;13.434;2023-07-13T01:38:50;100822.63;;;13.12;87.26
80509;BME280;69838;52.602;13.434;2023-07-13T01:39:35;100825.16;;;13.15;87.58
80509;BME280;69838;52.602;13.434;2023-07-13T01:40:21;100829.53;;;13.18;87.80
80509;BME280;69838;52.602;13.434;2023-07-13T01:41:06;100830.31;;;13.20;87.90
80509;BME280;69838;52.602;13.434;2023-07-13T01:41:52;100823.22;;;13.17;88.07
80509;BME280;69838;52.602;13.434;2023-07-13T01:42:37;100827.88;;;13.15;88.07
80509;BME280;69838;52.602;13.434;2023-07-13T01:43:23;100825.34;;;13.12;87.84
80509;BME280;69838;52.602;13.434;2023-07-13T01:44:08;100826.47;;;13.08;87.84
80509;BME280;69838;52.602;13.434;2023-07-13T01:44:53;100827.44;;;13.07;87.78
80509;BME280;69838;52.602;13.434;2023-07-13T01:45:38;100828.38;;;13.06;88.10
80509;BME280;69838;52.602;13.434;2023-07-13T01:46:24;100817.75;;;13.03;87.94
80509;BME280;69838;52.602;13.434;2023-07-13T01:47:10;100819.31;;;13.07;88.10
80509;BME280;69838;52.602;13.434;2023-07-13T01:47:55;100818.69;;;13.02;88.19
80509;BME280;69838;52.602;13.434;2023-07-13T01:48:41;100821.56;;;12.99;88.18
80509;BME280;69838;52.602;13.434;2023-07-13T01:49:26;100819.84;;;12.98;88.21
80509;BME280;69838;52.602;13.434;2023-07-13T01:50:11;100818.06;;;12.97;88.19
80509;BME280;69838;52.602;13.434;2023-07-13T01:50:56;100820.00;;;12.95;88.21
80509;BME280;69838;52.602;13.434;2023-07-13T01:51:42;100823.69;;;12.94;88.29
80509;BME280;69838;52.602;13.434;2023-07-13T01:52:27;100824.41;;;12.97;88.70
80509;BME280;69838;52.602;13.434;2023-07-13T01:53:12;100818.06;;;12.97;88.66
80509;BME280;69838;52.602;13.434;2023-07-13T01:53:58;100827.19;;;12.96;88.62
80509;BME280;69838;52.602;13.434;2023-07-13T01:54:43;100827.34;;;12.93;88.73
80509;BME280;69838;52.602;13.434;2023-07-13T01:55:29;100825.59;;;12.92;88.26
80509;BME280;69838;52.602;13.434;2023-07-13T01:56:14;100823.84;;;12.91;88.69
80509;BME280;69838;52.602;13.434;2023-07-13T01:56:59;100824.81;;;12.90;88.78
80509;BME280;69838;52.602;13.434;2023-07-13T01:57:45;100824.03;;;12.88;88.83
80509;BME280;69838;52.602;13.434;2023-07-13T01:58:30;100820.38;;;12.89;88.79
80509;BME280;69838;52.602;13.434;2023-07-13T01:59:16;100814.94;;;12.89;88.35
80509;BME280;69838;52.602;13.434;2023-07-13T02:00:04;100820.38;;;12.89;88.24
80509;BME280;69838;52.602;13.434;2023-07-13T02:00:51;100816.88;;;12.87;88.37
80509;BME280;69838;52.602;13.434;2023-07-13T02:01:36;100815.19;;;12.84;88.67
80509;BME280;69838;52.602;13.434;2023-07-13T02:02:21;100817.75;;;12.87;88.93
80509;BME280;69838;52.602;13.434;2023-07-13T02:03:07;100814.16;;;12.87;88.53
80509;BME280;69838;52.602;13.434;2023-07-13T02:03:52;100813.47;;;12.83;88.82
80509;BME280;69838;52.602;13.434;2023-07-13T02:04:37;100816.06;;;12.85;88.72
80509;BME280;69838;52.602;13.434;2023-07-13T02:05:23;100816.25;;;12.82;88.83
80509;BME280;69838;52.602;13.434;2023-07-13T02:06:08;100813.56;;;12.82;89.08
80509;BME280;69838;52.602;13.434;2023-07-13T02:06:53;100817.22;;;12.80;88.59
80509;BME280;69838;52.602;13.434;2023-07-13T02:07:40;100808.31;;;12.78;88.22
80509;BME280;69838;52.602;13.434;2023-07-13T02:08:26;100819.75;;;12.84;88.17
80509;BME280;69838;52.602;13.434;2023-07-13T02:09:11;100823.31;;;12.84;88.05
80509;BME280;69838;52.602;13.434;2023-07-13T02:09:57;100827.09;;;12.82;88.31
80509;BME280;69838;52.602;13.434;2023-07-13T02:10:42;100827.19;;;12.80;88.51
80509;BME280;69838;52.602;13.434;2023-07-13T02:11:27;100826.13;;;12.83;88.67
80509;BME280;69838;52.602;13.434;2023-07-13T02:12:17;100816.44;;;12.78;88.67
80509;BME280;69838;52.602;13.434;2023-07-13T02:13:05;100828.13;;;12.79;88.63
80509;BME280;69838;52.602;13.434;2023-07-13T02:13:51;100822.63;;;12.80;88.73
80509;BME280;69838;52.602;13.434;2023-07-13T02:14:37;100818.06;;;12.81;88.77
80509;BME280;69838;52.602;13.434;2023-07-13T02:15:22;100832.59;;;12.80;89.00
80509;BME280;69838;52.602;13.434;2023-07-13T02:16:07;100821.47;;;12.85;88.84
80509;BME280;69838;52.602;13.434;2023-07-13T02:16:52;100824.38;;;12.82;88.74
80509;BME280;69838;52.602;13.434;2023-07-13T02:17:37;100820.63;;;12.84;89.08
80509;BME280;69838;52.602;13.434;2023-07-13T02:18:23;100826.13;;;12.83;88.91
80509;BME280;69838;52.602;13.434;2023-07-13T02:19:08;100818.28;;;12.78;88.76
80509;BME280;69838;52.602;13.434;2023-07-13T02:19:54;100824.38;;;12.82;88.90
80509;BME280;69838;52.602;13.434;2023-07-13T02:20:39;100813.72;;;12.78;88.80
80509;BME280;69838;52.602;13.434;2023-07-13T02:21:25;100822.63;;;12.80;89.40
80509;BME280;69838;52.602;13.434;2023-07-13T02:22:10;100828.22;;;12.77;89.17
80509;BME280;69838;52.602;13.434;2023-07-13T02:22:55;100821.06;;;12.76;89.22
80509;BME280;69838;52.602;13.434;2023-07-13T02:23:40;100821.22;;;12.73;89.50
80509;BME280;69838;52.602;13.434;2023-07-13T02:24:26;100827.25;;;12.78;89.53
80509;BME280;69838;52.602;13.434;2023-07-13T02:25:12;100829.03;;;12.79;89.26
80509;BME280;69838;52.602;13.434;2023-07-13T02:25:59;100829.88;;;12.80;88.93
80509;BME280;69838;52.602;13.434;2023-07-13T02:26:44;100829.03;;;12.79;89.01
80509;BME280;69838;52.602;13.434;2023-07-13T02:27:29;100836.44;;;12.76;89.29
80509;BME280;69838;52.602;13.434;2023-07-13T02:28:15;100840.03;;;12.76;89.35
80509;BME280;69838;52.602;13.434;2023-07-13T02:29:00;100839.25;;;12.74;89.14
80509;BME280;69838;52.602;13.434;2023-07-13T02:29:45;100834.69;;;12.75;89.61
80509;BME280;69838;52.602;13.434;2023-07-13T02:30:30;100833.03;;;12.72;89.42
80509;BME280;69838;52.602;13.434;2023-07-13T02:31:16;100829.63;;;12.69;89.33
80509;BME280;69838;52.602;13.434;2023-07-13T02:32:01;100836.06;;;12.66;89.41
80509;BME280;69838;52.602;13.434;2023-07-13T02:32:46;100830.75;;;12.65;89.57
80509;BME280;69838;52.602;13.434;2023-07-13T02:33:31;100827.94;;;12.66;90.15
80509;BME280;69838;52.602;13.434;2023-07-13T02:34:17;100829.72;;;12.67;90.06
80509;BME280;69838;52.602;13.434;2023-07-13T02:35:02;100815.56;;;12.62;89.98
80509;BME280;69838;52.602;13.434;2023-07-13T02:35:48;100819.19;;;12.61;89.85
80509;BME280;69838;52.602;13.434;2023-07-13T02:36:33;100818.41;;;12.59;90.00
80509;BME280;69838;52.602;13.434;2023-07-13T02:37:19;100811.50;;;12.53;90.06
80509;BME280;69838;52.602;13.434;2023-07-13T02:38:04;100818.59;;;12.56;89.63
80509;BME280;69838;52.602;13.434;2023-07-13T02:38:50;100814.75;;;12.60;90.30
80509;BME280;69838;52.602;13.434;2023-07-13T02:39:35;100814.94;;;12.57;90.15
80509;BME280;69838;52.602;13.434;2023-07-13T02:40:21;100816.69;;;12.58;90.26
80509;BME280;69838;52.602;13.434;2023-07-13T02:41:07;100809.50;;;12.57;89.95
80509;BME280;69838;52.602;13.434;2023-07-13T02:41:53;100816.69;;;12.58;90.07
80509;BME280;69838;52.602;13.434;2023-07-13T02:42:39;100812.22;;;12.57;90.07
80509;BME280;69838;52.602;13.434;2023-07-13T02:43:24;100815.88;;;12.56;90.31
80509;BME280;69838;52.602;13.434;2023-07-13T02:44:12;100807.94;;;12.53;90.03
80509;BME280;69838;52.602;13.434;2023-07-13T02:44:58;100812.56;;;12.51;90.12
80509;BME280;69838;52.602;13.434;2023-07-13T02:45:44;100809.06;;;12.49;90.45
80509;BME280;69838;52.602;13.434;2023-07-13T02:46:31;100802.78;;;12.48;90.50
80509;BME280;69838;52.602;13.434;2023-07-13T02:47:16;100806.34;;;12.49;90.85
80509;BME280;69838;52.602;13.434;2023-07-13T02:48:01;100812.81;;;12.46;90.11
80509;BME280;69838;52.602;13.434;2023-07-13T02:48:47;100804.63;;;12.48;90.05
80509;BME280;69838;52.602;13.434;2023-07-13T02:49:32;100814.59;;;12.47;90.38
80509;BME280;69838;52.602;13.434;2023-07-13T02:50:17;100817.19;;;12.49;90.17
80509;BME280;69838;52.602;13.434;2023-07-13T02:51:03;100818.94;;;12.50;90.13
80509;BME280;69838;52.602;13.434;2023-07-13T02:51:48;100825.28;;;12.49;89.75
80509;BME280;69838;52.602;13.434;2023-07-13T02:52:33;100826.44;;;12.45;89.85
80509;BME280;69838;52.602;13.434;2023-07-13T02:53:19;100824.72;;;12.44;89.92
80509;BME280;69838;52.602;13.434;2023-07-13T02:54:04;100832.81;;;12.44;89.88
80509;BME280;69838;52.602;13.434;2023-07-13T02:54:49;100828.34;;;12.43;90.06
80509;BME280;69838;52.602;13.434;2023-07-13T02:55:35;100824.72;;;12.44;90.25
80509;BME280;69838;52.602;13.434;2023-07-13T02:56:25;100822.94;;;12.43;90.19
80509;BME280;69838;52.602;13.434;2023-07-13T02:57:10;100826.59;;;12.41;90.38
80509;BME280;69838;52.602;13.434;2023-07-13T02:57:55;100822.16;;;12.40;90.44
80509;BME280;69838;52.602;13.434;2023-07-13T02:58:42;100828.50;;;12.39;90.24
80509;BME280;69838;52.602;13.434;2023-07-13T02:59:27;100828.50;;;12.39;90.45
80509;BME280;69838;52.602;13.434;2023-07-13T03:00:12;100827.72;;;12.37;90.48
80509;BME280;69838;52.602;13.434;2023-07-13T03:00:58;100835.84;;;12.37;90.48
80509;BME280;69838;52.602;13.434;2023-07-13T03:01:43;100831.31;;;12.38;90.59
80509;BME280;69838;52.602;13.434;2023-07-13T03:02:28;100838.56;;;12.37;90.93
80509;BME280;69838;52.602;13.434;2023-07-13T03:03:14;100834.84;;;12.40;91.18
80509;BME280;69838;52.602;13.434;2023-07-13T03:03:59;100839.34;;;12.39;91.07
80509;BME280;69838;52.602;13.434;2023-07-13T03:04:44;100834.63;;;12.43;90.64
80509;BME280;69838;52.602;13.434;2023-07-13T03:05:30;100845.47;;;12.43;91.07
80509;BME280;69838;52.602;13.434;2023-07-13T03:06:16;100846.53;;;12.40;90.89
80509;BME280;69838;52.602;13.434;2023-07-13T03:07:02;100843.91;;;12.39;90.83
80509;BME280;69838;52.602;13.434;2023-07-13T03:07:47;100834.28;;;12.33;90.80
80509;BME280;69838;52.602;13.434;2023-07-13T03:08:32;100850.25;;;12.38;90.88
80509;BME280;69838;52.602;13.434;2023-07-13T03:09:19;100853.06;;;12.36;90.67
80509;BME280;69838;52.602;13.434;2023-07-13T03:10:05;100854.00;;;12.35;90.70
80509;BME280;69838;52.602;13.434;2023-07-13T03:11:02;100847.66;;;12.36;90.91
80509;BME280;69838;52.602;13.434;2023-07-13T03:11:48;100856.56;;;12.38;91.12
80509;BME280;69838;52.602;13.434;2023-07-13T03:12:33;100863.91;;;12.36;91.17
80509;BME280;69838;52.602;13.434;2023-07-13T03:13:18;100859.34;;;12.37;91.07
80509;BME280;69838;52.602;13.434;2023-07-13T03:14:03;100857.50;;;12.37;91.05
80509;BME280;69838;52.602;13.434;2023-07-13T03:14:49;100856.38;;;12.41;91.41
80509;BME280;69838;52.602;13.434;2023-07-13T03:15:34;100850.19;;;12.39;90.93
80509;BME280;69838;52.602;13.434;2023-07-13T03:16:19;100861.00;;;12.39;90.86
80509;BME280;69838;52.602;13.434;2023-07-13T03:17:05;100850.81;;;12.45;91.21
80509;BME280;69838;52.602;13.434;2023-07-13T03:17:50;100858.75;;;12.48;91.38
80509;BME280;69838;52.602;13.434;2023-07-13T03:18:36;100851.59;;;12.47;91.42
80509;BME280;69838;52.602;13.434;2023-07-13T03:19:21;100854.75;;;12.55;91.33
80509;BME280;69838;52.602;13.434;2023-07-13T03:20:07;100857.38;;;12.56;91.03
80509;BME280;69838;52.602;13.434;2023-07-13T03:20:53;100841.47;;;12.50;90.80
80509;BME280;69838;52.602;13.434;2023-07-13T03:21:38;100858.09;;;12.60;91.01
80509;BME280;69838;52.602;13.434;2023-07-13T03:22:23;100859.66;;;12.64;90.88
80509;BME280;69838;52.602;13.434;2023-07-13T03:23:08;100866.84;;;12.65;90.94
80509;BME280;69838;52.602;13.434;2023-07-13T03:23:54;100861.06;;;12.71;90.43
80509;BME280;69838;52.602;13.434;2023-07-13T03:24:39;100860.28;;;12.69;90.49
80509;BME280;69838;52.602;13.434;2023-07-13T03:25:24;100869.28;;;12.70;90.76
80509;BME280;69838;52.602;13.434;2023-07-13T03:26:13;100868.41;;;12.69;90.71
80509;BME280;69838;52.602;13.434;2023-07-13T03:27:01;100852.69;;;12.60;90.33
80509;BME280;69838;52.602;13.434;2023-07-13T03:27:46;100861.44;;;12.65;90.43
80509;BME280;69838;52.602;13.434;2023-07-13T03:28:32;100861.44;;;12.65;90.59
80509;BME280;69838;52.602;13.434;2023-07-13T03:29:17;100861.22;;;12.68;91.04
80509;BME280;69838;52.602;13.434;2023-07-13T03:30:04;100864.72;;;12.70;91.10
80509;BME280;69838;52.602;13.434;2023-07-13T03:30:59;100866.66;;;12.68;90.72
80509;BME280;69838;52.602;13.434;2023-07-13T03:31:44;100854.09;;;12.67;90.78
80509;BME280;69838;52.602;13.434;2023-07-13T03:32:29;100869.97;;;12.73;90.54
80509;BME280;69838;52.602;13.434;2023-07-13T03:33:14;100867.19;;;12.75;90.44
80509;BME280;69838;52.602;13.434;2023-07-13T03:34:00;100867.53;;;12.85;90.03
80509;BME280;69838;52.602;13.434;2023-07-13T03:34:45;100867.38;;;12.88;89.70
80509;BME280;69838;52.602;13.434;2023-07-13T03:35:30;100870.88;;;12.90;89.76
80509;BME280;69838;52.602;13.434;2023-07-13T03:36:21;100856.69;;;12.85;90.18
80509;BME280;69838;52.602;13.434;2023-07-13T03:37:07;100868.78;;;12.95;89.68
80509;BME280;69838;52.602;13.434;2023-07-13T03:37:52;100872.28;;;12.97;89.78
80509;BME280;69838;52.602;13.434;2023-07-13T03:38:37;100864.06;;;12.98;89.61
80509;BME280;69838;52.602;13.434;2023-07-13T03:39:22;100873.50;;;13.07;89.41
80509;BME280;69838;52.602;13.434;2023-07-13T03:40:09;100877.69;;;13.13;88.93
80509;BME280;69838;52.602;13.434;2023-07-13T03:40:54;100881.81;;;13.20;88.74
80509;BME280;69838;52.602;13.434;2023-07-13T03:41:39;100856.88;;;13.13;88.91
80509;BME280;69838;52.602;13.434;2023-07-13T03:42:24;100875.06;;;13.27;88.27
80509;BME280;69838;52.602;13.434;2023-07-13T03:43:10;100871.16;;;13.33;88.66
80509;BME280;69838;52.602;13.434;2023-07-13T03:43:56;100875.25;;;13.40;88.14
80509;BME280;69838;52.602;13.434;2023-07-13T03:44:42;100878.56;;;13.45;88.58
80509;BME280;69838;52.602;13.434;2023-07-13T03:45:30;100875.59;;;13.50;88.44
80509;BME280;69838;52.602;13.434;2023-07-13T03:46:16;100879.00;;;13.53;88.10
80509;BME280;69838;52.602;13.434;2023-07-13T03:47:02;100886.59;;;13.63;86.51
80509;BME280;69838;52.602;13.434;2023-07-13T03:47:47;100880.09;;;13.65;86.57
80509;BME280;69838;52.602;13.434;2023-07-13T03:48:32;100882.19;;;13.76;85.65
80509;BME280;69838;52.602;13.434;2023-07-13T03:49:18;100878.34;;;13.80;85.71
80509;BME280;69838;52.602;13.434;2023-07-13T03:50:03;100875.50;;;13.82;85.81
80509;BME280;69838;52.602;13.434;2023-07-13T03:50:49;100876.09;;;13.87;85.31
80509;BME280;69838;52.602;13.434;2023-07-13T03:51:34;100876.03;;;13.88;85.59
80509;BME280;69838;52.602;13.434;2023-07-13T03:52:19;100872.34;;;13.89;85.20
80509;BME280;69838;52.602;13.434;2023-07-13T03:53:05;100878.47;;;13.93;87.17
80509;BME280;69838;52.602;13.434;2023-07-13T03:53:50;100877.56;;;13.92;86.81
80509;BME280;69838;52.602;13.434;2023-07-13T03:54:35;100873.03;;;13.93;86.50
80509;BME280;69838;52.602;13.434;2023-07-13T03:55:20;100875.47;;;13.98;86.71
80509;BME280;69838;52.602;13.434;2023-07-13T03:56:06;100876.53;;;13.95;86.62
80509;BME280;69838;52.602;13.434;2023-07-13T03:56:51;100886.31;;;13.98;85.89
80509;BME280;69838;52.602;13.434;2023-07-13T03:57:37;100881.88;;;13.97;86.68
80509;BME280;69838;52.602;13.434;2023-07-13T03:58:29;100882.81;;;13.96;86.41
80509;BME280;69838;52.602;13.434;2023-07-13T03:59:15;100871.09;;;13.95;86.18